Latest Weather Observations for Strahan

IDT60801

Issued at 7:31 am EDT Monday 30 March 2015 (issued every 30 minutes, with the page automatically refreshed every 10 minutes)

About weather observations | Map of weather stations | Latest weather observations for TAS | Other Formats
Station Details ID: 097072 Name: STRAHAN AERODROME Lat: -42.16 Lon: 145.29 Height: 21.0 m
Data from the previous 72 hours. | See also: Recent months at Strahan
Date/Time
EDT
Temp
°C
App
Temp
°C
Dew
Point
Rel
Hum
%
Delta-T
°C
Wind Press
QNH
hPa
Press
MSL
hPa
Rain
since 9 am
mm
Dir
 
Spd
km/h
Gust
km/h
Spd
kts
Gust
kts
30/07:30am 13.5 12.8 13.3 99 0.1 NNE 9 15 5 8 1019.9 1019.8 1.8
30/07:18am 13.7 13.7 13.5 99 0.1 N 6 7 3 4 1019.9 1019.8 1.8
30/07:02am 13.8 13.2 13.5 98 0.2 N 9 15 5 8 1019.7 1019.6 1.8
30/07:00am 13.8 13.2 13.5 98 0.2 N 9 15 5 8 1019.7 1019.6 1.8
30/06:44am 13.8 13.1 13.3 97 0.3 N 9 11 5 6 1019.6 1019.5 1.8
30/06:30am 13.9 13.2 13.3 96 0.3 N 9 11 5 6 1019.5 1019.4 1.8
30/06:00am 13.9 13.4 12.8 93 0.6 N 7 11 4 6 1019.5 1019.4 1.8
30/05:30am 14.2 13.0 12.8 91 0.8 NNW 11 13 6 7 1019.5 1019.4 1.8
30/05:00am 14.4 12.8 12.8 90 0.9 NNW 13 17 7 9 1019.5 1019.4 1.8
30/04:30am 14.5 11.8 13.0 91 0.8 NW 19 24 10 13 1019.7 1019.6 1.8
30/04:00am 14.8 11.4 13.8 94 0.6 NW 24 30 13 16 1019.7 1019.6 1.8
30/03:30am 14.5 12.0 14.0 97 0.3 NNW 20 26 11 14 1019.6 1019.5 1.8
30/03:00am 14.7 11.6 14.5 99 0.1 NNW 24 32 13 17 1019.8 1019.7 1.8
30/02:30am 14.7 12.0 14.5 99 0.1 NNW 22 30 12 16 1019.7 1019.6 1.8
30/02:00am 14.6 12.4 14.4 99 0.1 NNW 19 24 10 13 1019.6 1019.5 1.8
30/01:30am 14.5 12.3 14.3 99 0.1 N 19 22 10 12 1019.5 1019.4 1.8
30/01:00am 14.6 12.4 14.4 99 0.1 NNW 19 26 10 14 1019.6 1019.5 1.8
30/12:51am 14.7 12.5 14.5 99 0.1 NNW 19 24 10 13 1019.6 1019.5 1.8
30/12:30am 14.6 12.4 14.4 99 0.1 NNW 19 26 10 14 1019.6 1019.5 1.8
30/12:26am 14.6 12.8 14.4 99 0.1 NNW 17 24 9 13 1019.6 1019.5 1.8
30/12:00am 14.4 12.5 14.2 99 0.1 NNW 17 20 9 11 1019.6 1019.5 1.8
 
Date/Time
EDT
Temp
°C
App
Temp
°C
Dew
Point
Rel
Hum
%
Delta-T
°C
Wind Press
QNH
hPa
Press
MSL
hPa
Rain
since 9 am
mm
Dir
 
Spd
km/h
Gust
km/h
Spd
kts
Gust
kts
29/11:30pm 14.2 11.9 14.0 99 0.1 NNW 19 28 10 15 1019.7 1019.6 1.8
29/11:16pm 14.4 12.5 14.2 99 0.1 NNW 17 24 9 13 1019.8 1019.7 1.8
29/11:00pm 14.3 11.8 14.1 99 0.1 NNW 20 26 11 14 1019.7 1019.6 1.8
29/10:41pm 14.3 13.1 14.1 99 0.1 NNW 13 17 7 9 1019.7 1019.6 1.8
29/10:37pm 14.2 13.0 14.0 99 0.1 NNW 13 17 7 9 1019.7 1019.6 1.8
29/10:35pm 14.2 13.4 14.0 99 0.1 NNW 11 17 6 9 1019.7 1019.6 1.8
29/10:30pm 14.0 13.5 13.8 99 0.1 NNW 9 13 5 7 1019.6 1019.5 1.8
29/10:25pm 13.9 13.4 13.7 99 0.1 N 9 13 5 7 1019.7 1019.6 1.8
29/10:24pm 13.8 13.2 13.6 99 0.1 N 9 13 5 7 1019.7 1019.6 1.8
29/10:00pm 13.7 12.3 13.5 99 0.1 NNW 13 17 7 9 1019.6 1019.5 1.8
29/09:30pm 13.8 13.2 13.6 99 0.1 NNW 9 11 5 6 1019.5 1019.4 1.8
29/09:00pm 13.6 12.6 13.4 99 0.1 NNW 11 15 6 8 1019.2 1019.1 1.8
29/08:30pm 13.5 13.4 13.3 99 0.1 NNE 6 9 3 5 1019.1 1019.0 1.8
29/08:00pm 13.4 13.3 13.2 99 0.1 NNE 6 9 3 5 1018.8 1018.7 1.8
29/07:50pm 13.4 13.1 13.2 99 0.1 NNE 7 11 4 6 1018.6 1018.5 1.8
29/07:38pm 13.5 13.2 13.3 99 0.1 N 7 9 4 5 1018.6 1018.5 1.8
29/07:30pm 13.6 13.3 13.4 99 0.1 NNW 7 9 4 5 1018.6 1018.5 1.8
29/07:00pm 13.6 12.9 13.1 97 0.3 WNW 9 11 5 6 1018.5 1018.4 1.8
29/06:53pm 13.6 12.8 13.0 96 0.3 WNW 9 11 5 6 1018.5 1018.4 1.8
29/06:47pm 13.6 12.4 12.8 95 0.4 WNW 11 15 6 8 1018.5 1018.4 1.8
29/06:33pm 13.8 11.4 12.5 92 0.7 W 17 20 9 11 1018.4 1018.3 1.8
29/06:30pm 13.9 11.5 12.6 92 0.7 W 17 20 9 11 1018.4 1018.3 1.8
29/06:00pm 14.3 12.4 12.9 91 0.8 WNW 15 20 8 11 1018.0 1017.9 1.8
29/05:30pm 14.4 13.4 13.3 93 0.6 WNW 11 17 6 9 1017.6 1017.5 1.8
29/05:00pm 14.3 12.1 13.3 94 0.6 WNW 17 20 9 11 1017.8 1017.7 1.8
29/04:30pm 14.7 11.9 13.2 91 0.8 WNW 20 26 11 14 1017.6 1017.5 1.6
29/04:00pm 14.7 12.3 13.9 95 0.4 NW 19 26 10 14 1017.6 1017.5 1.6
29/03:30pm 15.1 12.9 14.9 99 0.1 WNW 20 26 11 14 1017.6 1017.5 1.6
29/03:00pm 15.0 12.4 14.8 99 0.1 NW 22 28 12 15 1017.5 1017.4 1.6
29/02:30pm 14.5 12.1 14.3 99 0.1 NW 20 30 11 16 1017.6 1017.5 1.6
29/02:15pm 14.7 12.5 14.5 99 0.1 NW 19 28 10 15 1017.5 1017.4 1.6
29/02:11pm 14.7 12.5 14.5 99 0.1 NW 19 28 10 15 1017.5 1017.4 1.6
29/02:04pm 14.8 13.1 14.6 99 0.1 NW 17 20 9 11 1017.5 1017.4 1.6
29/02:00pm 14.8 13.4 14.6 99 0.1 NW 15 20 8 11 1017.5 1017.4 1.6
29/01:58pm 14.8 13.4 14.6 99 0.1 NW 15 20 8 11 1017.5 1017.4 1.6
29/01:30pm 13.8 11.3 13.6 99 0.1 WSW 19 24 10 13 1017.6 1017.5 1.6
29/01:08pm 15.0 10.9 14.8 99 0.1 NW 30 39 16 21 1017.4 1017.3 0.2
29/01:04pm 15.0 10.9 14.8 99 0.1 NW 30 41 16 22 1017.3 1017.2 0.2
29/01:00pm 15.0 11.2 14.8 99 0.1 NNW 28 41 15 22 1017.2 1017.1 0.2
29/12:58pm 15.1 11.4 14.9 99 0.1 NW 28 41 15 22 1017.2 1017.1 0.2
29/12:56pm 15.0 10.9 14.8 99 0.1 NW 30 48 16 26 1017.2 1017.1 0.2
29/12:54pm 14.9 10.3 14.7 99 0.1 NW 32 48 17 26 1017.2 1017.1 0.2
29/12:31pm 15.0 10.4 14.7 98 0.2 NW 32 43 17 23 1017.3 1017.2 0.2
29/12:30pm 15.0 10.4 14.7 98 0.2 NW 32 41 17 22 1017.3 1017.2 0.2
29/12:13pm 15.0 10.8 14.7 98 0.2 NW 30 43 16 23 1017.3 1017.2 0.2
29/12:00pm 14.5 9.5 13.9 96 0.3 NW 33 46 18 25 1017.4 1017.3 0.2
29/11:55am 14.6 9.5 13.8 95 0.4 NW 33 48 18 26 1017.4 1017.3 0.2
29/11:46am 14.8 9.2 13.2 90 0.9 NW 35 46 19 25 1017.4 1017.3 0.0
29/11:30am 15.0 9.7 13.0 88 1.1 NW 33 44 18 24 1017.5 1017.4 0.0
29/11:00am 14.9 9.7 13.3 90 0.9 NW 33 43 18 23 1017.6 1017.5 0.0
29/10:30am 14.9 9.1 12.8 87 1.2 NW 35 50 19 27 1017.5 1017.4 0.0
29/10:00am 14.9 10.3 13.4 91 0.8 NNW 30 43 16 23 1017.4 1017.3 0.0
29/09:30am 14.7 9.5 12.9 89 1.0 NW 32 43 17 23 1017.4 1017.3 0.0
29/09:00am 14.0 9.9 13.7 98 0.2 NNW 28 41 15 22 1017.2 1017.1 2.8
29/08:30am 12.9 9.6 12.7 99 0.1 N 22 30 12 16 1017.0 1016.9 2.8
29/08:00am 12.5 9.4 12.3 99 0.1 N 20 30 11 16 1016.9 1016.8 2.8
29/07:30am 12.3 9.2 12.1 99 0.1 N 20 28 11 15 1016.7 1016.6 2.8
29/07:00am 12.1 8.9 11.9 99 0.1 N 20 28 11 15 1016.9 1016.8 2.8
29/06:30am 12.1 8.9 11.9 99 0.1 N 20 28 11 15 1016.9 1016.8 2.8
29/06:12am 12.3 8.8 12.1 99 0.1 N 22 30 12 16 1016.9 1016.8 2.8
29/06:02am 12.1 8.5 11.9 99 0.1 N 22 35 12 19 1016.9 1016.8 2.8
29/06:00am 12.1 8.5 11.9 99 0.1 N 22 35 12 19 1016.9 1016.8 2.8
29/05:30am 12.1 8.9 11.9 99 0.1 N 20 30 11 16 1016.8 1016.7 2.6
29/05:00am 11.8 8.5 11.6 99 0.1 N 20 30 11 16 1017.0 1016.9 2.6
29/04:30am 11.6 8.2 11.4 99 0.1 N 20 32 11 17 1016.9 1016.8 2.4
29/04:00am 11.8 8.7 11.6 99 0.1 N 19 35 10 19 1016.8 1016.7 2.4
29/03:30am 11.2 7.7 11.0 99 0.1 N 20 26 11 14 1017.8 1017.7 2.4
29/03:00am 11.1 8.2 10.9 99 0.1 N 17 28 9 15 1017.6 1017.5 2.4
29/02:51am 11.0 7.7 10.8 99 0.1 N 19 26 10 14 1017.5 1017.4 2.4
29/02:47am 11.0 8.0 10.8 99 0.1 N 17 26 9 14 1017.6 1017.5 2.4
29/02:34am 11.0 8.0 10.8 99 0.1 N 17 26 9 14 1017.5 1017.4 2.4
29/02:33am 11.0 8.4 10.8 99 0.1 N 15 22 8 12 1017.5 1017.4 2.4
29/02:30am 10.9 8.3 10.7 99 0.1 N 15 20 8 11 1017.6 1017.5 2.2
29/02:00am 10.9 7.9 10.7 99 0.1 N 17 24 9 13 1017.8 1017.7 1.8
29/01:38am 11.0 8.3 10.5 97 0.3 N 15 22 8 12 1018.0 1017.9 1.0
29/01:30am 11.1 8.1 10.6 97 0.3 N 17 24 9 13 1018.3 1018.2 0.6
29/01:24am 11.0 8.7 10.4 96 0.3 N 13 24 7 13 1018.3 1018.2 0.6
29/01:23am 11.1 8.8 10.5 96 0.3 N 13 24 7 13 1018.4 1018.3 0.6
29/01:19am 11.1 8.8 10.5 96 0.3 N 13 19 7 10 1018.3 1018.2 0.4
29/01:00am 11.6 8.2 10.7 94 0.5 NNW 19 28 10 15 1018.6 1018.5 0.4
29/12:59am 11.7 8.4 10.8 94 0.5 NNW 19 28 10 15 1018.7 1018.6 0.4
29/12:50am 11.5 8.7 10.1 91 0.7 N 15 24 8 13 1018.7 1018.6 0.2
29/12:30am 11.5 9.1 9.9 90 0.8 NNE 13 15 7 8 1018.6 1018.5 0.2
29/12:00am 11.4 9.0 10.0 91 0.7 NNE 13 19 7 10 1018.7 1018.6 0.2
 
Date/Time
EDT
Temp
°C
App
Temp
°C
Dew
Point
Rel
Hum
%
Delta-T
°C
Wind Press
QNH
hPa
Press
MSL
hPa
Rain
since 9 am
mm
Dir
 
Spd
km/h
Gust
km/h
Spd
kts
Gust
kts
28/11:30pm 11.4 9.0 10.0 91 0.7 NNE 13 19 7 10 1019.1 1019.0 0.2
28/11:00pm 11.4 9.0 10.1 92 0.7 NNE 13 20 7 11 1019.4 1019.3 0.2
28/10:30pm 11.4 8.6 10.1 92 0.7 NNE 15 17 8 9 1019.6 1019.5 0.2
28/10:00pm 11.5 9.5 10.1 91 0.7 NNE 11 17 6 9 1019.9 1019.8 0.2
28/09:30pm 11.6 9.6 10.2 91 0.7 NNE 11 17 6 9 1020.0 1019.9 0.2
28/09:00pm 11.8 9.1 10.4 91 0.7 N 15 22 8 12 1020.0 1019.9 0.2
28/08:30pm 11.7 9.5 10.8 94 0.5 N 13 19 7 10 1020.1 1020.0 0.2
28/08:00pm 11.6 9.5 11.0 96 0.3 NNE 13 20 7 11 1020.1 1020.0 0.2
28/07:30pm 11.9 9.8 11.0 94 0.5 N 13 17 7 9 1020.2 1020.1 0.2
28/07:00pm 12.3 10.5 10.7 90 0.8 N 11 26 6 14 1020.3 1020.2 0.2
28/06:30pm 13.0 9.4 10.7 86 1.2 NW 20 28 11 15 1020.3 1020.2 0.2
28/06:00pm 12.9 9.4 11.0 88 1.0 NW 20 28 11 15 1020.4 1020.3 0.2
28/05:30pm 13.2 9.2 10.6 84 1.4 WNW 22 32 12 17 1020.4 1020.3 0.2
28/05:00pm 14.5 10.2 9.5 72 2.6 NW 22 28 12 15 1020.6 1020.5 0.2
28/04:30pm 14.8 10.2 9.6 71 2.7 NW 24 32 13 17 1020.9 1020.8 0.2
28/04:00pm 15.2 11.4 9.8 70 2.8 NW 20 26 11 14 1021.0 1020.9 0.2
28/03:30pm 15.5 11.7 9.8 69 3.0 NW 20 28 11 15 1021.2 1021.1 0.2
28/03:00pm 14.8 10.7 8.7 67 3.1 NW 20 28 11 15 1021.5 1021.4 0.2
28/02:30pm 16.0 12.2 9.7 66 3.3 NW 20 26 11 14 1021.6 1021.5 0.2
28/02:00pm 15.5 11.7 9.0 65 3.3 NW 19 26 10 14 1021.9 1021.8 0.2
28/01:30pm 15.3 11.3 9.2 67 3.1 NW 20 28 11 15 1022.2 1022.1 0.2
28/01:00pm 15.4 11.8 10.0 70 2.8 NW 19 24 10 13 1022.5 1022.5 0.2
28/12:30pm 15.2 12.6 10.6 74 2.4 WNW 15 22 8 12 1022.8 1022.8 0.2
28/12:00pm 13.4 9.8 10.4 82 1.6 WNW 20 28 11 15 1023.1 1023.1 0.2
28/11:30am 13.1 11.2 9.0 76 2.1 NW 9 17 5 9 1023.3 1023.3 0.2
28/11:00am 12.4 11.6 11.6 95 0.4 NNW 7 9 4 5 1023.3 1023.3 0.2
28/10:30am 11.9 11.1 11.7 99 0.1 NNE 7 11 4 6 1023.4 1023.4 0.2
28/10:00am 11.5 10.6 11.3 99 0.1 ENE 7 11 4 6 1023.4 1023.4 0.2
28/09:30am 11.2 10.2 11.0 99 0.1 ENE 7 11 4 6 1023.3 1023.3 0.0
28/09:07am 10.9 9.8 10.7 99 0.1 NE 7 11 4 6 1023.1 1023.1 0.0
28/09:00am 11.0 9.6 10.8 99 0.1 NE 9 11 5 6 1023.1 1023.1 2.2
28/08:57am 11.0 9.6 10.8 99 0.1 NE 9 11 5 6 1023.1 1023.1 2.2
28/08:30am 10.5 9.3 10.3 99 0.1 NNE 7 9 4 5 1022.9 1022.9 2.2
28/08:03am 10.3 9.0 10.1 99 0.1 NE 7 9 4 5 1022.7 1022.7 2.2
28/08:00am 10.3 9.0 10.1 99 0.1 NE 7 9 4 5 1022.7 1022.7 2.2
28/07:47am 10.4 10.1 10.2 99 0.1 ESE 2 9 1 5 1022.6 1022.6 2.2
28/07:30am 10.5 9.3 10.3 99 0.1 SSW 7 13 4 7 1022.5 1022.5 2.2
28/07:00am 10.4 8.8 10.1 98 0.2 WSW 9 11 5 6 1022.3 1022.3 1.2
28/06:55am 10.4 8.7 9.9 97 0.3 W 9 11 5 6 1022.3 1022.3 1.0
28/06:53am 10.3 9.0 9.8 97 0.3 W 7 11 4 6 1022.3 1022.3 1.0
28/06:30am 10.5 9.2 10.0 97 0.3 SW 7 9 4 5 1022.2 1022.1 1.0
28/06:00am 10.7 8.3 10.1 96 0.3 WSW 13 17 7 9 1022.2 1022.1 1.0
28/05:30am 10.9 8.9 10.0 94 0.5 W 11 15 6 8 1022.1 1022.0 1.0
28/05:00am 10.9 8.9 10.3 96 0.3 W 11 15 6 8 1022.0 1021.9 1.0
28/04:30am 10.7 9.0 9.9 95 0.4 NNW 9 13 5 7 1022.0 1021.9 1.0
28/04:00am 10.4 9.1 9.8 96 0.3 NNE 7 11 4 6 1022.0 1021.9 1.0
28/03:30am 10.4 8.6 9.6 95 0.4 NNE 9 11 5 6 1022.1 1022.0 1.0
28/03:00am 10.5 8.8 9.7 95 0.4 NNE 9 11 5 6 1022.4 1022.4 1.0
28/02:30am 10.4 8.6 9.6 95 0.4 NE 9 11 5 6 1022.5 1022.5 1.0
28/02:00am 10.4 9.2 9.5 94 0.4 NE 6 6 3 3 1022.5 1022.5 1.0
28/01:30am 10.6 10.5 9.5 93 0.6 CALM 0 6 0 3 1022.5 1022.5 1.0
28/01:00am 10.8 9.0 9.6 92 0.6 NE 9 9 5 5 1022.7 1022.7 1.0
28/12:30am 11.0 9.9 9.8 92 0.6 SE 6 9 3 5 1022.8 1022.8 1.0
28/12:00am 11.0 9.8 9.6 91 0.7 E 6 7 3 4 1022.8 1022.8 1.0
 
Date/Time
EDT
Temp
°C
App
Temp
°C
Dew
Point
Rel
Hum
%
Delta-T
°C
Wind Press
QNH
hPa
Press
MSL
hPa
Rain
since 9 am
mm
Dir
 
Spd
km/h
Gust
km/h
Spd
kts
Gust
kts
27/11:30pm 11.2 10.4 9.6 90 0.8 S 4 6 2 3 1022.9 1022.9 1.0
27/11:00pm 11.5 10.0 9.2 86 1.1 S 7 11 4 6 1022.9 1022.9 1.0
27/10:30pm 11.5 9.9 8.9 84 1.3 S 7 9 4 5 1022.9 1022.9 1.0
27/10:00pm 11.4 9.8 8.8 84 1.3 S 7 9 4 5 1022.8 1022.8 1.0
27/09:30pm 11.2 9.2 8.8 85 1.2 S 9 13 5 7 1022.6 1022.6 1.0
27/09:00pm 11.1 8.7 8.8 86 1.1 SSW 11 15 6 8 1022.4 1022.4 1.0
27/08:30pm 11.3 8.3 9.2 87 1.1 SSW 15 20 8 11 1022.1 1022.0 1.0
27/08:00pm 11.2 7.3 9.3 88 0.9 SW 20 28 11 15 1021.8 1021.7 1.0
27/07:30pm 11.3 6.3 9.7 90 0.8 SW 26 35 14 19 1021.4 1021.3 1.0
27/07:00pm 11.5 7.1 10.4 93 0.6 SW 24 39 13 21 1021.1 1021.0 1.0
27/06:30pm 11.8 8.3 10.9 94 0.5 SW 20 28 11 15 1020.7 1020.6 1.0
27/06:26pm 11.8 8.5 10.9 94 0.5 SW 19 28 10 15 1020.7 1020.6 1.0
27/06:13pm 11.9 7.6 10.8 93 0.6 SW 24 32 13 17 1020.5 1020.4 1.0
27/06:00pm 12.1 7.5 11.0 93 0.6 SW 26 35 14 19 1020.3 1020.2 0.6
27/05:36pm 12.4 8.6 11.3 93 0.6 SSW 22 35 12 19 1020.0 1019.9 0.6
27/05:30pm 12.4 8.2 11.1 92 0.7 SSW 24 35 13 19 1019.9 1019.8 0.6
27/05:16pm 12.5 8.3 11.1 91 0.7 SSW 24 32 13 17 1019.8 1019.7 0.6
27/05:00pm 13.1 9.0 11.5 90 0.8 SSW 24 33 13 18 1019.7 1019.6 0.6
27/04:30pm 13.4 8.2 11.5 88 1.0 SSW 30 41 16 22 1019.3 1019.2 0.6
27/04:00pm 14.4 8.3 11.6 83 1.5 SSW 35 46 19 25 1019.2 1019.1 0.6
27/03:30pm 14.4 8.9 11.7 84 1.5 SSW 32 46 17 25 1018.9 1018.8 0.6
27/03:00pm 14.9 8.8 11.9 82 1.6 SSW 35 48 19 26 1018.7 1018.6 0.6
27/02:30pm 14.8 9.1 13.0 89 1.0 SSW 35 48 19 26 1018.5 1018.4 0.6
27/02:00pm 14.0 8.4 12.2 89 1.0 SSW 33 46 18 25 1018.6 1018.5 0.6
27/01:30pm 14.5 9.2 12.5 88 1.1 SSW 32 43 17 23 1018.7 1018.6 0.4
27/01:00pm 14.8 9.3 12.3 85 1.4 SSW 33 46 18 25 1018.6 1018.5 0.4
27/12:30pm 14.4 10.5 13.4 94 0.6 SSW 26 43 14 23 1018.3 1018.2 0.4
27/12:21pm 13.5 9.8 12.6 94 0.5 SSW 24 33 13 18 1018.3 1018.2 0.4
27/12:09pm 12.7 8.2 11.3 91 0.7 SSW 26 39 14 21 1018.2 1018.1 0.4
27/12:00pm 13.3 8.8 11.4 88 1.0 SSW 26 39 14 21 1018.2 1018.1 0.2
27/11:30am 12.7 8.7 11.8 94 0.5 S 24 32 13 17 1017.9 1017.8 0.2
27/11:00am 12.2 8.3 12.0 99 0.1 S 24 41 13 22 1017.5 1017.4 0.2
27/10:45am 11.6 10.3 11.4 99 0.1 ENE 9 15 5 8 1016.9 1016.8 0.2
27/10:30am 10.7 9.6 10.5 99 0.1 NE 7 9 4 5 1016.8 1016.7 0.2
27/10:00am 10.1 9.0 9.9 99 0.1 NNE 6 9 3 5 1016.5 1016.4 0.2
27/09:30am 9.6 8.4 9.5 99 0.0 ENE 6 9 3 5 1016.1 1016.0 0.2
27/09:00am 9.3 9.1 9.2 99 0.0 CALM 0 2 0 1 1015.3 1015.3 5.4
27/08:30am 9.2 8.6 9.1 99 0.0 ENE 2 6 1 3 1014.9 1014.9 5.4
27/08:28am 9.1 8.5 9.0 99 0.0 ENE 2 6 1 3 1014.9 1014.9 5.4
27/08:15am 8.9 6.9 8.8 99 0.0 ENE 9 13 5 7 1014.5 1014.5 5.4
27/08:00am 8.3 5.4 8.2 99 0.0 ENE 13 22 7 12 1014.5 1014.5 5.4
27/07:53am 8.2 6.4 8.1 99 0.0 NNE 7 13 4 7 1014.0 1014.0 4.6
27/07:40am 8.1 4.8 8.0 99 0.0 N 15 22 8 12 1014.0 1014.0 4.2
27/07:38am 8.0 5.0 7.9 99 0.0 N 13 19 7 10 1013.9 1013.9 4.2

Other Formats:

Comma delimited format used in spreadsheet applications
http://www.bom.gov.au/fwo/IDT60801/IDT60801.94956.axf

JavaScript Object Notation format (JSON) in row-major order
http://www.bom.gov.au/fwo/IDT60801/IDT60801.94956.json